createdAt,value
2018-07-10T00:00:11.591Z,0
2018-07-10T00:01:16.992Z,0
2018-07-10T00:02:22.416Z,0
2018-07-10T00:03:27.813Z,0
2018-07-10T00:04:34.207Z,0
2018-07-10T00:05:39.609Z,0
2018-07-10T00:06:45.030Z,0
2018-07-10T00:07:50.436Z,0
2018-07-10T00:08:55.841Z,0
2018-07-10T00:10:01.242Z,0
2018-07-10T00:11:06.648Z,0
2018-07-10T00:12:12.065Z,0
2018-07-10T00:13:17.463Z,0
2018-07-10T00:14:22.869Z,0
2018-07-10T00:15:29.265Z,0
2018-07-10T00:16:34.693Z,0
2018-07-10T00:17:40.104Z,0
2018-07-10T00:18:46.499Z,0
2018-07-10T00:19:51.906Z,0
2018-07-10T00:20:57.312Z,0
2018-07-10T00:22:02.746Z,0
2018-07-10T00:23:08.162Z,0
2018-07-10T00:24:13.579Z,0
2018-07-10T00:25:18.975Z,0
2018-07-10T00:26:24.382Z,0
2018-07-10T00:27:29.797Z,0
2018-07-10T00:28:35.202Z,0
2018-07-10T00:29:40.608Z,0
2018-07-10T00:30:46.018Z,0
2018-07-10T00:31:51.415Z,0
2018-07-10T00:32:56.828Z,0
2018-07-10T00:34:02.231Z,0
2018-07-10T00:35:07.632Z,0
2018-07-10T00:36:13.051Z,0
2018-07-10T00:37:18.468Z,0
2018-07-10T00:38:23.872Z,0
2018-07-10T00:39:29.288Z,0
2018-07-10T00:40:34.685Z,0
2018-07-10T00:41:40.096Z,0
2018-07-10T00:42:45.510Z,0
2018-07-10T00:43:50.917Z,0
2018-07-10T00:44:58.299Z,0
2018-07-10T00:46:03.711Z,0
2018-07-10T00:47:10.106Z,0
2018-07-10T00:48:15.523Z,0
2018-07-10T00:49:20.923Z,0
2018-07-10T00:50:26.329Z,0
2018-07-10T00:51:31.726Z,0
2018-07-10T00:52:37.144Z,0
2018-07-10T00:53:42.553Z,0
2018-07-10T00:54:47.958Z,0
2018-07-10T00:55:53.360Z,0
2018-07-10T00:56:59.760Z,0
2018-07-10T00:58:05.170Z,0
2018-07-10T00:59:10.580Z,0
2018-07-10T01:00:15.983Z,0
2018-07-10T01:01:21.395Z,0
2018-07-10T01:02:26.811Z,0
2018-07-10T01:03:32.220Z,0
2018-07-10T01:04:37.624Z,0
2018-07-10T01:05:43.030Z,0
2018-07-10T01:06:48.433Z,0
2018-07-10T01:07:53.853Z,0
2018-07-10T01:08:59.262Z,0
2018-07-10T01:10:05.660Z,0
2018-07-10T01:11:11.080Z,0
2018-07-10T01:12:16.486Z,0
2018-07-10T01:13:21.901Z,0
2018-07-10T01:14:27.304Z,0
2018-07-10T01:15:32.709Z,0
2018-07-10T01:16:38.111Z,0
2018-07-10T01:17:43.525Z,0
2018-07-10T01:18:48.996Z,0
2018-07-10T01:19:54.326Z,0
2018-07-10T01:20:59.733Z,0
2018-07-10T01:22:05.139Z,0
2018-07-10T01:23:10.557Z,0
2018-07-10T01:24:15.959Z,0
2018-07-10T01:25:21.364Z,0
2018-07-10T01:26:26.775Z,0
2018-07-10T01:27:32.177Z,0
2018-07-10T01:28:38.586Z,0
2018-07-10T01:29:43.993Z,0
2018-07-10T01:30:49.401Z,0
2018-07-10T01:31:54.808Z,0
2018-07-10T01:33:00.239Z,0
2018-07-10T01:34:05.649Z,0
2018-07-10T01:35:11.045Z,0
2018-07-10T01:36:16.450Z,0
2018-07-10T01:37:21.855Z,0
2018-07-10T01:38:27.266Z,0
2018-07-10T01:39:32.669Z,0
2018-07-10T01:40:38.076Z,0
2018-07-10T01:41:44.479Z,0
2018-07-10T01:42:49.884Z,0
2018-07-10T01:43:55.296Z,0
2018-07-10T01:45:00.720Z,0
2018-07-10T01:46:06.117Z,0
2018-07-10T01:47:11.522Z,0
2018-07-10T01:48:16.925Z,0
2018-07-10T01:49:22.338Z,0
2018-07-10T01:50:27.737Z,0
2018-07-10T01:51:33.145Z,0
2018-07-10T01:52:38.552Z,0
2018-07-10T01:53:43.966Z,0
2018-07-10T01:54:49.372Z,0
2018-07-10T01:55:54.775Z,0
2018-07-10T01:57:00.180Z,0
2018-07-10T01:58:05.583Z,0
2018-07-10T01:59:11.004Z,0
2018-07-10T02:00:16.402Z,0
2018-07-10T02:01:21.804Z,0
2018-07-10T02:02:27.207Z,0
2018-07-10T02:03:32.620Z,0
2018-07-10T02:04:38.027Z,0
2018-07-10T02:05:43.428Z,0
2018-07-10T02:06:48.834Z,0
2018-07-10T02:07:54.271Z,0
2018-07-10T02:08:59.691Z,0
2018-07-10T02:10:05.087Z,0
2018-07-10T02:11:10.492Z,0
2018-07-10T02:12:15.894Z,0
2018-07-10T02:13:21.296Z,0
2018-07-10T02:14:26.718Z,0
2018-07-10T02:15:32.111Z,0
2018-07-10T02:16:37.515Z,0
2018-07-10T02:17:42.920Z,0
2018-07-10T02:18:48.321Z,0
2018-07-10T02:19:54.728Z,0
2018-07-10T02:21:00.136Z,0
2018-07-10T02:22:05.534Z,0
2018-07-10T02:23:10.939Z,0
2018-07-10T02:24:16.352Z,0
2018-07-10T02:25:21.759Z,0
2018-07-10T02:26:27.167Z,0
2018-07-10T02:27:32.574Z,0
2018-07-10T02:28:37.982Z,0
2018-07-10T02:29:43.400Z,0
2018-07-10T02:30:48.806Z,0
2018-07-10T02:31:54.206Z,0
2018-07-10T02:32:59.616Z,0
2018-07-10T02:34:05.029Z,0
2018-07-10T02:35:10.436Z,0
2018-07-10T02:36:15.844Z,0
2018-07-10T02:37:21.250Z,0
2018-07-10T02:38:26.652Z,0
2018-07-10T02:39:32.065Z,0
2018-07-10T02:40:37.470Z,0
2018-07-10T02:41:43.866Z,0
2018-07-10T02:42:49.265Z,0
2018-07-10T02:43:54.668Z,0
2018-07-10T02:45:00.118Z,0
2018-07-10T02:46:05.501Z,0
2018-07-10T02:47:10.904Z,0
2018-07-10T02:48:16.308Z,0
2018-07-10T02:49:21.720Z,0
2018-07-10T02:50:27.129Z,0
2018-07-10T02:51:32.527Z,0
2018-07-10T02:52:38.920Z,0
2018-07-10T02:53:44.322Z,0
2018-07-10T02:54:49.738Z,0
2018-07-10T02:55:55.143Z,0
2018-07-10T02:57:00.546Z,0
2018-07-10T02:58:05.950Z,0
2018-07-10T02:59:12.349Z,0
2018-07-10T03:00:17.756Z,0
2018-07-10T03:01:23.163Z,0
2018-07-10T03:02:28.563Z,0
2018-07-10T03:03:33.967Z,0
2018-07-10T03:04:39.399Z,0
2018-07-10T03:05:44.799Z,0
2018-07-10T03:06:50.205Z,0
2018-07-10T03:07:55.608Z,0
2018-07-10T03:09:01.016Z,0
2018-07-10T03:10:06.432Z,0
2018-07-10T03:11:11.837Z,0
2018-07-10T03:12:17.243Z,0
2018-07-10T03:13:22.647Z,0
2018-07-10T03:14:28.046Z,0
2018-07-10T03:15:33.462Z,0
2018-07-10T03:16:38.864Z,0
2018-07-10T03:17:44.266Z,0
2018-07-10T03:18:49.670Z,0
2018-07-10T03:19:55.076Z,0
2018-07-10T03:21:00.497Z,0
2018-07-10T03:22:05.899Z,0
2018-07-10T03:23:11.299Z,0
2018-07-10T03:24:16.701Z,0
2018-07-10T03:25:22.144Z,0
2018-07-10T03:26:27.550Z,0
2018-07-10T03:27:32.956Z,0
2018-07-10T03:28:38.360Z,0
2018-07-10T03:29:43.764Z,0
2018-07-10T03:30:49.181Z,0
2018-07-10T03:31:54.588Z,0
2018-07-10T03:32:59.990Z,0
2018-07-10T03:34:05.398Z,0
2018-07-10T03:35:10.804Z,0
2018-07-10T03:36:16.276Z,0
2018-07-10T03:37:21.624Z,0
2018-07-10T03:38:27.033Z,0
2018-07-10T03:39:32.433Z,0
2018-07-10T03:40:37.851Z,0
2018-07-10T03:41:43.253Z,0
2018-07-10T03:42:48.657Z,0
2018-07-10T03:43:54.068Z,0
2018-07-10T03:44:59.460Z,0
2018-07-10T03:46:04.983Z,0
2018-07-10T03:47:10.390Z,0
2018-07-10T03:48:15.792Z,0
2018-07-10T03:49:21.194Z,0
2018-07-10T03:50:26.606Z,0
2018-07-10T03:51:32.020Z,0
2018-07-10T03:52:37.422Z,0
2018-07-10T03:53:42.823Z,0
2018-07-10T03:54:48.228Z,0
2018-07-10T03:55:53.643Z,0
2018-07-10T03:56:59.045Z,0
2018-07-10T03:58:04.450Z,0
2018-07-10T03:59:09.854Z,0
2018-07-10T04:00:15.257Z,5.625
2018-07-10T04:01:20.683Z,5.625
2018-07-10T04:02:26.089Z,5.625
2018-07-10T04:03:31.504Z,5.625
2018-07-10T04:04:36.901Z,5.625
2018-07-10T04:05:42.305Z,5.625
2018-07-10T04:06:47.719Z,5.625
2018-07-10T04:07:53.140Z,5.625
2018-07-10T04:08:58.573Z,5.625
2018-07-10T04:10:03.950Z,5.625
2018-07-10T04:11:09.355Z,5.625
2018-07-10T04:12:14.771Z,5.625
2018-07-10T04:13:20.178Z,5.625
2018-07-10T04:14:25.596Z,5.625
2018-07-10T04:15:31.003Z,11.25
2018-07-10T04:16:36.406Z,11.25
2018-07-10T04:17:41.838Z,5.625
2018-07-10T04:18:47.226Z,5.625
2018-07-10T04:19:52.630Z,5.625
2018-07-10T04:20:58.033Z,5.625
2018-07-10T04:22:03.461Z,5.625
2018-07-10T04:23:08.862Z,5.625
2018-07-10T04:24:14.271Z,5.625
2018-07-10T04:25:19.674Z,5.625
2018-07-10T04:26:25.079Z,5.625
2018-07-10T04:27:30.510Z,5.625
2018-07-10T04:28:35.912Z,5.625
2018-07-10T04:29:41.312Z,5.625
2018-07-10T04:30:46.716Z,5.625
2018-07-10T04:31:52.128Z,5.625
2018-07-10T04:32:57.544Z,11.25
2018-07-10T04:34:02.949Z,11.25
2018-07-10T04:35:08.351Z,11.25
2018-07-10T04:36:13.756Z,5.625
2018-07-10T04:37:19.158Z,11.25
2018-07-10T04:38:24.576Z,11.25
2018-07-10T04:39:29.990Z,11.25
2018-07-10T04:40:35.390Z,11.25
2018-07-10T04:41:41.797Z,11.25
2018-07-10T04:42:47.222Z,11.25
2018-07-10T04:43:52.627Z,11.25
2018-07-10T04:44:58.028Z,11.25
2018-07-10T04:46:03.437Z,11.25
2018-07-10T04:47:08.836Z,11.25
2018-07-10T04:48:14.266Z,11.25
2018-07-10T04:49:19.684Z,16.875
2018-07-10T04:50:25.087Z,11.25
2018-07-10T04:51:30.495Z,16.875
2018-07-10T04:52:35.901Z,16.875
2018-07-10T04:53:41.316Z,22.5
2018-07-10T04:54:46.730Z,22.5
2018-07-10T04:55:53.125Z,22.5
2018-07-10T04:56:58.528Z,22.5
2018-07-10T04:58:03.928Z,22.5
2018-07-10T04:59:09.343Z,16.875
2018-07-10T05:00:14.742Z,11.25
2018-07-10T05:01:20.154Z,11.25
2018-07-10T05:02:25.573Z,11.25
2018-07-10T05:03:31.007Z,11.25
2018-07-10T05:04:36.410Z,11.25
2018-07-10T05:05:41.810Z,11.25
2018-07-10T05:06:47.215Z,11.25
2018-07-10T05:07:52.619Z,5.625
2018-07-10T05:08:58.032Z,11.25
2018-07-10T05:10:03.436Z,11.25
2018-07-10T05:11:08.836Z,16.875
2018-07-10T05:12:14.237Z,16.875
2018-07-10T05:13:19.637Z,11.25
2018-07-10T05:14:25.053Z,11.25
2018-07-10T05:15:30.468Z,5.625
2018-07-10T05:16:35.868Z,11.25
2018-07-10T05:17:41.337Z,5.625
2018-07-10T05:18:47.676Z,11.25
2018-07-10T05:19:53.081Z,11.25
2018-07-10T05:20:58.491Z,11.25
2018-07-10T05:22:03.898Z,11.25
2018-07-10T05:23:09.418Z,16.875
2018-07-10T05:24:14.719Z,16.875
2018-07-10T05:25:20.124Z,16.875
2018-07-10T05:26:25.532Z,16.875
2018-07-10T05:27:30.937Z,16.875
2018-07-10T05:28:36.358Z,16.875
2018-07-10T05:29:41.808Z,22.5
2018-07-10T05:30:47.217Z,28.125
2018-07-10T05:31:52.623Z,33.75
2018-07-10T05:32:58.028Z,33.75
2018-07-10T05:34:03.432Z,39.375
2018-07-10T05:35:08.844Z,45
2018-07-10T05:36:14.246Z,45
2018-07-10T05:37:19.648Z,50.625
2018-07-10T05:38:25.052Z,50.625
2018-07-10T05:39:30.461Z,45
2018-07-10T05:40:35.887Z,45
2018-07-10T05:41:41.301Z,45
2018-07-10T05:42:46.698Z,45
2018-07-10T05:43:52.100Z,50.625
2018-07-10T05:44:57.565Z,56.25
2018-07-10T05:46:02.970Z,56.25
2018-07-10T05:47:08.380Z,61.875
2018-07-10T05:48:13.782Z,50.625
2018-07-10T05:49:19.184Z,45
2018-07-10T05:50:24.601Z,50.625
2018-07-10T05:51:30.002Z,50.625
2018-07-10T05:52:35.409Z,50.625
2018-07-10T05:53:40.814Z,39.375
2018-07-10T05:54:46.216Z,33.75
2018-07-10T05:55:51.640Z,33.75
2018-07-10T05:56:58.039Z,22.5
2018-07-10T05:58:03.444Z,16.875
2018-07-10T05:59:08.854Z,16.875
2018-07-10T06:00:14.285Z,22.5
2018-07-10T06:01:19.690Z,22.5
2018-07-10T06:02:25.107Z,16.875
2018-07-10T06:03:30.495Z,16.875
2018-07-10T06:04:35.921Z,16.875
2018-07-10T06:05:41.311Z,16.875
2018-07-10T06:06:46.723Z,16.875
2018-07-10T06:07:52.129Z,16.875
2018-07-10T06:08:57.530Z,16.875
2018-07-10T06:10:02.938Z,22.5
2018-07-10T06:11:08.349Z,28.125
2018-07-10T06:12:13.753Z,33.75
2018-07-10T06:13:19.181Z,28.125
2018-07-10T06:14:24.588Z,22.5
2018-07-10T06:15:31.002Z,16.875
2018-07-10T06:16:36.421Z,22.5
2018-07-10T06:17:41.822Z,33.75
2018-07-10T06:18:47.226Z,33.75
2018-07-10T06:19:52.632Z,22.5
2018-07-10T06:20:58.043Z,11.25
2018-07-10T06:22:03.451Z,16.875
2018-07-10T06:23:08.855Z,11.25
2018-07-10T06:24:14.255Z,11.25
2018-07-10T06:25:19.658Z,28.125
2018-07-10T06:26:25.073Z,39.375
2018-07-10T06:27:30.486Z,33.75
2018-07-10T06:28:35.891Z,39.375
2018-07-10T06:29:41.303Z,39.375
2018-07-10T06:30:47.706Z,33.75
2018-07-10T06:31:53.116Z,33.75
2018-07-10T06:32:58.518Z,28.125
2018-07-10T06:34:03.919Z,28.125
2018-07-10T06:35:09.321Z,33.75
2018-07-10T06:36:14.737Z,33.75
2018-07-10T06:37:20.142Z,39.375
2018-07-10T06:38:25.547Z,39.375
2018-07-10T06:39:30.943Z,39.375
2018-07-10T06:40:36.353Z,39.375
2018-07-10T06:41:41.768Z,39.375
2018-07-10T06:42:47.170Z,45
2018-07-10T06:43:53.568Z,39.375
2018-07-10T06:44:59.008Z,39.375
2018-07-10T06:46:05.403Z,39.375
2018-07-10T06:47:10.814Z,33.75
2018-07-10T06:48:16.217Z,33.75
2018-07-10T06:49:21.616Z,28.125
2018-07-10T06:50:27.023Z,33.75
2018-07-10T06:51:32.435Z,33.75
2018-07-10T06:52:37.968Z,39.375
2018-07-10T06:53:43.306Z,39.375
2018-07-10T06:54:48.644Z,33.75
2018-07-10T06:55:54.048Z,33.75
2018-07-10T06:56:59.608Z,28.125
2018-07-10T06:58:05.008Z,22.5
2018-07-10T06:59:10.412Z,28.125
2018-07-10T07:00:15.815Z,22.5
2018-07-10T07:01:22.238Z,22.5
2018-07-10T07:02:27.643Z,22.5
2018-07-10T07:03:33.056Z,28.125
2018-07-10T07:04:38.462Z,28.125
2018-07-10T07:05:43.876Z,28.125
2018-07-10T07:06:49.290Z,33.75
2018-07-10T07:07:54.730Z,39.375
2018-07-10T07:09:00.117Z,39.375
2018-07-10T07:10:05.524Z,33.75
2018-07-10T07:11:10.929Z,33.75
2018-07-10T07:12:16.353Z,28.125
2018-07-10T07:13:21.769Z,22.5
2018-07-10T07:14:27.169Z,28.125
2018-07-10T07:15:32.574Z,33.75
2018-07-10T07:16:37.988Z,33.75
2018-07-10T07:17:43.401Z,50.625
2018-07-10T07:18:48.800Z,50.625
2018-07-10T07:19:54.204Z,45
2018-07-10T07:20:59.608Z,33.75
2018-07-10T07:22:05.023Z,33.75
2018-07-10T07:23:10.428Z,33.75
2018-07-10T07:24:15.841Z,39.375
2018-07-10T07:25:21.241Z,28.125
2018-07-10T07:26:26.647Z,22.5
2018-07-10T07:27:32.063Z,28.125
2018-07-10T07:28:38.458Z,22.5
